sensor_id;sensor_type;location;lat;lon;timestamp;temperature;humidity
41116;DHT22;26861;51.824;4.682;2023-11-19T00:02:11;17.30;95.60
41116;DHT22;26861;51.824;4.682;2023-11-19T00:04:37;17.30;95.80
41116;DHT22;26861;51.824;4.682;2023-11-19T00:07:04;17.30;95.80
41116;DHT22;26861;51.824;4.682;2023-11-19T00:09:34;17.40;95.90
41116;DHT22;26861;51.824;4.682;2023-11-19T00:12:02;17.40;93.60
41116;DHT22;26861;51.824;4.682;2023-11-19T00:14:28;17.30;95.40
41116;DHT22;26861;51.824;4.682;2023-11-19T00:16:54;17.30;95.80
41116;DHT22;26861;51.824;4.682;2023-11-19T00:19:20;17.30;95.80
41116;DHT22;26861;51.824;4.682;2023-11-19T00:21:45;17.30;95.80
41116;DHT22;26861;51.824;4.682;2023-11-19T00:24:11;17.30;95.70
41116;DHT22;26861;51.824;4.682;2023-11-19T00:26:38;17.40;95.70
41116;DHT22;26861;51.824;4.682;2023-11-19T00:29:03;17.30;95.70
41116;DHT22;26861;51.824;4.682;2023-11-19T00:31:29;17.30;95.70
41116;DHT22;26861;51.824;4.682;2023-11-19T00:33:54;17.40;95.70
41116;DHT22;26861;51.824;4.682;2023-11-19T00:36:20;17.40;95.70
41116;DHT22;26861;51.824;4.682;2023-11-19T00:38:46;17.30;95.60
41116;DHT22;26861;51.824;4.682;2023-11-19T00:41:11;17.40;95.70
41116;DHT22;26861;51.824;4.682;2023-11-19T00:43:37;17.20;95.50
41116;DHT22;26861;51.824;4.682;2023-11-19T00:46:03;17.40;95.70
41116;DHT22;26861;51.824;4.682;2023-11-19T00:48:28;17.40;95.40
41116;DHT22;26861;51.824;4.682;2023-11-19T00:50:54;17.40;95.70
41116;DHT22;26861;51.824;4.682;2023-11-19T00:53:19;17.40;95.70
41116;DHT22;26861;51.824;4.682;2023-11-19T00:55:45;17.50;95.60
41116;DHT22;26861;51.824;4.682;2023-11-19T00:58:10;17.30;95.60
41116;DHT22;26861;51.824;4.682;2023-11-19T01:00:36;17.40;95.70
41116;DHT22;26861;51.824;4.682;2023-11-19T01:03:01;17.40;95.50
41116;DHT22;26861;51.824;4.682;2023-11-19T01:05:27;17.40;95.80
41116;DHT22;26861;51.824;4.682;2023-11-19T01:07:53;17.60;95.70
41116;DHT22;26861;51.824;4.682;2023-11-19T01:10:19;17.50;95.80
41116;DHT22;26861;51.824;4.682;2023-11-19T01:12:45;17.50;95.70
41116;DHT22;26861;51.824;4.682;2023-11-19T01:15:11;17.40;95.80
41116;DHT22;26861;51.824;4.682;2023-11-19T01:17:37;17.40;95.70
41116;DHT22;26861;51.824;4.682;2023-11-19T01:20:03;17.50;95.80
41116;DHT22;26861;51.824;4.682;2023-11-19T01:22:31;17.40;95.30
41116;DHT22;26861;51.824;4.682;2023-11-19T01:24:57;17.50;95.70
41116;DHT22;26861;51.824;4.682;2023-11-19T01:27:23;17.50;95.60
41116;DHT22;26861;51.824;4.682;2023-11-19T01:29:49;17.50;95.70
41116;DHT22;26861;51.824;4.682;2023-11-19T01:32:15;17.50;95.80
41116;DHT22;26861;51.824;4.682;2023-11-19T01:34:40;17.50;95.60
41116;DHT22;26861;51.824;4.682;2023-11-19T01:37:06;17.50;95.70
41116;DHT22;26861;51.824;4.682;2023-11-19T01:39:31;17.50;95.70
41116;DHT22;26861;51.824;4.682;2023-11-19T01:41:57;17.50;95.70
41116;DHT22;26861;51.824;4.682;2023-11-19T01:44:22;17.40;95.40
41116;DHT22;26861;51.824;4.682;2023-11-19T01:46:48;17.60;95.60
41116;DHT22;26861;51.824;4.682;2023-11-19T01:49:14;17.50;95.60
41116;DHT22;26861;51.824;4.682;2023-11-19T01:51:40;17.60;95.50
41116;DHT22;26861;51.824;4.682;2023-11-19T01:54:06;17.50;95.70
41116;DHT22;26861;51.824;4.682;2023-11-19T01:56:32;17.50;95.60
41116;DHT22;26861;51.824;4.682;2023-11-19T01:58:59;17.50;95.60
41116;DHT22;26861;51.824;4.682;2023-11-19T02:01:24;17.50;95.30
41116;DHT22;26861;51.824;4.682;2023-11-19T02:03:50;17.60;95.50
41116;DHT22;26861;51.824;4.682;2023-11-19T02:06:16;17.50;95.40
41116;DHT22;26861;51.824;4.682;2023-11-19T02:08:42;17.60;95.40
41116;DHT22;26861;51.824;4.682;2023-11-19T02:11:08;17.60;95.40
41116;DHT22;26861;51.824;4.682;2023-11-19T02:13:34;17.60;95.40
41116;DHT22;26861;51.824;4.682;2023-11-19T02:16:02;17.50;93.50
41116;DHT22;26861;51.824;4.682;2023-11-19T02:18:28;17.50;95.20
41116;DHT22;26861;51.824;4.682;2023-11-19T02:20:55;17.60;95.20
41116;DHT22;26861;51.824;4.682;2023-11-19T02:23:21;17.60;95.30
41116;DHT22;26861;51.824;4.682;2023-11-19T02:25:47;17.60;95.10
41116;DHT22;26861;51.824;4.682;2023-11-19T02:28:15;17.60;95.20
41116;DHT22;26861;51.824;4.682;2023-11-19T02:30:41;17.60;94.80
41116;DHT22;26861;51.824;4.682;2023-11-19T02:33:07;17.50;95.10
41116;DHT22;26861;51.824;4.682;2023-11-19T02:35:33;17.60;95.10
41116;DHT22;26861;51.824;4.682;2023-11-19T02:37:59;17.60;95.10
41116;DHT22;26861;51.824;4.682;2023-11-19T02:40:26;17.60;95.10
41116;DHT22;26861;51.824;4.682;2023-11-19T02:42:52;17.60;95.00
41116;DHT22;26861;51.824;4.682;2023-11-19T02:45:18;17.50;95.20
41116;DHT22;26861;51.824;4.682;2023-11-19T02:47:44;17.10;94.90
41116;DHT22;26861;51.824;4.682;2023-11-19T02:50:10;17.60;95.00
41116;DHT22;26861;51.824;4.682;2023-11-19T02:52:42;17.50;95.10
41116;DHT22;26861;51.824;4.682;2023-11-19T02:55:08;17.50;95.00
41116;DHT22;26861;51.824;4.682;2023-11-19T02:57:40;17.60;95.00
41116;DHT22;26861;51.824;4.682;2023-11-19T03:00:17;17.40;92.40
41116;DHT22;26861;51.824;4.682;2023-11-19T03:02:44;17.50;94.70
41116;DHT22;26861;51.824;4.682;2023-11-19T03:05:14;17.40;95.00
41116;DHT22;26861;51.824;4.682;2023-11-19T03:07:43;17.50;95.10
41116;DHT22;26861;51.824;4.682;2023-11-19T03:10:10;17.60;94.90
41116;DHT22;26861;51.824;4.682;2023-11-19T03:12:42;17.80;95.10
41116;DHT22;26861;51.824;4.682;2023-11-19T03:15:08;17.50;92.60
41116;DHT22;26861;51.824;4.682;2023-11-19T03:17:40;17.50;94.80
41116;DHT22;26861;51.824;4.682;2023-11-19T03:20:07;17.50;92.50
41116;DHT22;26861;51.824;4.682;2023-11-19T03:22:38;17.50;94.40
41116;DHT22;26861;51.824;4.682;2023-11-19T03:25:04;17.50;92.50
41116;DHT22;26861;51.824;4.682;2023-11-19T03:27:32;17.40;94.50
41116;DHT22;26861;51.824;4.682;2023-11-19T03:29:58;17.50;94.70
41116;DHT22;26861;51.824;4.682;2023-11-19T03:32:23;17.50;94.80
41116;DHT22;26861;51.824;4.682;2023-11-19T03:34:49;17.50;94.80
41116;DHT22;26861;51.824;4.682;2023-11-19T03:37:15;17.50;94.80
41116;DHT22;26861;51.824;4.682;2023-11-19T03:39:43;17.50;94.60
41116;DHT22;26861;51.824;4.682;2023-11-19T03:42:09;17.50;94.70
41116;DHT22;26861;51.824;4.682;2023-11-19T03:44:35;17.50;94.70
41116;DHT22;26861;51.824;4.682;2023-11-19T03:47:01;17.50;94.60
41116;DHT22;26861;51.824;4.682;2023-11-19T03:49:27;17.40;94.60
41116;DHT22;26861;51.824;4.682;2023-11-19T03:51:53;17.50;94.60
41116;DHT22;26861;51.824;4.682;2023-11-19T03:54:19;17.50;94.70
41116;DHT22;26861;51.824;4.682;2023-11-19T03:56:46;17.40;94.60
41116;DHT22;26861;51.824;4.682;2023-11-19T03:59:11;17.50;94.70
41116;DHT22;26861;51.824;4.682;2023-11-19T04:01:37;17.40;94.40
41116;DHT22;26861;51.824;4.682;2023-11-19T04:04:02;17.50;94.70
41116;DHT22;26861;51.824;4.682;2023-11-19T04:06:28;17.50;94.30
41116;DHT22;26861;51.824;4.682;2023-11-19T04:08:54;17.40;94.40
41116;DHT22;26861;51.824;4.682;2023-11-19T04:11:21;17.70;94.50
41116;DHT22;26861;51.824;4.682;2023-11-19T04:13:47;17.50;94.60
41116;DHT22;26861;51.824;4.682;2023-11-19T04:16:12;17.40;94.50
41116;DHT22;26861;51.824;4.682;2023-11-19T04:18:38;17.50;94.50
41116;DHT22;26861;51.824;4.682;2023-11-19T04:21:05;17.40;94.50
41116;DHT22;26861;51.824;4.682;2023-11-19T04:23:31;17.50;94.00
41116;DHT22;26861;51.824;4.682;2023-11-19T04:25:56;17.50;94.40
41116;DHT22;26861;51.824;4.682;2023-11-19T04:28:22;17.40;94.50
41116;DHT22;26861;51.824;4.682;2023-11-19T04:30:47;17.30;94.40
41116;DHT22;26861;51.824;4.682;2023-11-19T04:33:13;17.40;94.40
41116;DHT22;26861;51.824;4.682;2023-11-19T04:35:40;17.40;94.40
41116;DHT22;26861;51.824;4.682;2023-11-19T04:38:06;17.40;94.40
41116;DHT22;26861;51.824;4.682;2023-11-19T04:40:32;17.30;94.30
41116;DHT22;26861;51.824;4.682;2023-11-19T04:43:17;17.30;94.30
41116;DHT22;26861;51.824;4.682;2023-11-19T04:46:03;17.10;94.20
41116;DHT22;26861;51.824;4.682;2023-11-19T04:48:49;17.40;94.30
41116;DHT22;26861;51.824;4.682;2023-11-19T04:51:37;17.30;94.10
41116;DHT22;26861;51.824;4.682;2023-11-19T04:54:23;17.30;94.40
41116;DHT22;26861;51.824;4.682;2023-11-19T04:57:08;17.30;94.20
41116;DHT22;26861;51.824;4.682;2023-11-19T04:59:37;17.30;91.80
41116;DHT22;26861;51.824;4.682;2023-11-19T05:02:03;17.30;94.20
41116;DHT22;26861;51.824;4.682;2023-11-19T05:04:29;17.30;94.20
41116;DHT22;26861;51.824;4.682;2023-11-19T05:06:55;17.30;94.50
41116;DHT22;26861;51.824;4.682;2023-11-19T05:09:20;17.30;94.40
41116;DHT22;26861;51.824;4.682;2023-11-19T05:11:46;17.40;94.60
41116;DHT22;26861;51.824;4.682;2023-11-19T05:14:11;17.30;94.40
41116;DHT22;26861;51.824;4.682;2023-11-19T05:16:39;17.30;94.50
41116;DHT22;26861;51.824;4.682;2023-11-19T05:19:04;17.30;94.40
41116;DHT22;26861;51.824;4.682;2023-11-19T05:21:30;17.40;94.40
41116;DHT22;26861;51.824;4.682;2023-11-19T05:23:55;17.30;94.40
41116;DHT22;26861;51.824;4.682;2023-11-19T05:26:22;17.20;94.30
41116;DHT22;26861;51.824;4.682;2023-11-19T05:28:49;17.30;94.50
41116;DHT22;26861;51.824;4.682;2023-11-19T05:31:16;17.30;94.50
41116;DHT22;26861;51.824;4.682;2023-11-19T05:33:42;17.40;94.50
41116;DHT22;26861;51.824;4.682;2023-11-19T05:36:08;17.30;94.40
41116;DHT22;26861;51.824;4.682;2023-11-19T05:38:35;17.40;93.90
41116;DHT22;26861;51.824;4.682;2023-11-19T05:41:01;17.50;94.40
41116;DHT22;26861;51.824;4.682;2023-11-19T05:43:27;17.30;94.30
41116;DHT22;26861;51.824;4.682;2023-11-19T05:45:52;17.30;94.30
41116;DHT22;26861;51.824;4.682;2023-11-19T05:48:18;17.40;94.20
41116;DHT22;26861;51.824;4.682;2023-11-19T05:50:43;17.30;94.30
41116;DHT22;26861;51.824;4.682;2023-11-19T05:53:10;17.30;94.20
41116;DHT22;26861;51.824;4.682;2023-11-19T05:55:39;17.30;94.30
41116;DHT22;26861;51.824;4.682;2023-11-19T05:58:14;17.20;91.90
41116;DHT22;26861;51.824;4.682;2023-11-19T06:00:40;17.30;94.30
41116;DHT22;26861;51.824;4.682;2023-11-19T06:03:08;17.20;94.10
41116;DHT22;26861;51.824;4.682;2023-11-19T06:05:33;17.30;94.10
41116;DHT22;26861;51.824;4.682;2023-11-19T06:07:59;17.40;94.30
41116;DHT22;26861;51.824;4.682;2023-11-19T06:10:24;17.30;94.30
41116;DHT22;26861;51.824;4.682;2023-11-19T06:12:58;17.30;94.20
41116;DHT22;26861;51.824;4.682;2023-11-19T06:15:25;17.30;94.30
41116;DHT22;26861;51.824;4.682;2023-11-19T06:17:50;17.20;94.20
41116;DHT22;26861;51.824;4.682;2023-11-19T06:20:16;17.40;94.40
41116;DHT22;26861;51.824;4.682;2023-11-19T06:22:42;17.30;94.20
41116;DHT22;26861;51.824;4.682;2023-11-19T06:25:11;17.20;94.20
41116;DHT22;26861;51.824;4.682;2023-11-19T06:27:36;17.20;94.00
41116;DHT22;26861;51.824;4.682;2023-11-19T06:30:02;17.20;94.20
41116;DHT22;26861;51.824;4.682;2023-11-19T06:32:28;17.20;93.90
41116;DHT22;26861;51.824;4.682;2023-11-19T06:34:54;17.20;94.10
41116;DHT22;26861;51.824;4.682;2023-11-19T06:37:19;17.20;94.10
41116;DHT22;26861;51.824;4.682;2023-11-19T06:42:12;17.20;93.30
41116;DHT22;26861;51.824;4.682;2023-11-19T06:44:37;17.20;94.20
41116;DHT22;26861;51.824;4.682;2023-11-19T06:47:03;17.20;94.10
41116;DHT22;26861;51.824;4.682;2023-11-19T06:49:28;17.20;94.10
41116;DHT22;26861;51.824;4.682;2023-11-19T06:51:54;17.30;94.10
41116;DHT22;26861;51.824;4.682;2023-11-19T06:54:19;17.20;94.20
41116;DHT22;26861;51.824;4.682;2023-11-19T06:56:45;17.30;93.80
41116;DHT22;26861;51.824;4.682;2023-11-19T06:59:10;17.20;94.00
41116;DHT22;26861;51.824;4.682;2023-11-19T07:01:36;17.20;93.80
41116;DHT22;26861;51.824;4.682;2023-11-19T07:04:02;17.30;93.90
41116;DHT22;26861;51.824;4.682;2023-11-19T07:06:33;17.20;93.90
41116;DHT22;26861;51.824;4.682;2023-11-19T07:08:59;17.30;93.90
41116;DHT22;26861;51.824;4.682;2023-11-19T07:11:24;17.20;94.00
41116;DHT22;26861;51.824;4.682;2023-11-19T07:13:50;17.30;93.90
41116;DHT22;26861;51.824;4.682;2023-11-19T07:16:15;17.60;94.10
41116;DHT22;26861;51.824;4.682;2023-11-19T07:18:41;17.20;93.90
41116;DHT22;26861;51.824;4.682;2023-11-19T07:21:09;17.20;93.90
41116;DHT22;26861;51.824;4.682;2023-11-19T07:23:35;17.30;93.80
41116;DHT22;26861;51.824;4.682;2023-11-19T07:26:01;17.30;94.00
41116;DHT22;26861;51.824;4.682;2023-11-19T07:28:26;17.30;93.90
41116;DHT22;26861;51.824;4.682;2023-11-19T07:30:54;17.20;93.90
41116;DHT22;26861;51.824;4.682;2023-11-19T07:33:21;17.20;93.70
41116;DHT22;26861;51.824;4.682;2023-11-19T07:35:46;17.30;94.00
41116;DHT22;26861;51.824;4.682;2023-11-19T07:38:12;17.20;93.90
41116;DHT22;26861;51.824;4.682;2023-11-19T07:40:38;17.30;93.90
41116;DHT22;26861;51.824;4.682;2023-11-19T07:43:03;17.00;93.80
41116;DHT22;26861;51.824;4.682;2023-11-19T07:45:29;17.20;93.90
41116;DHT22;26861;51.824;4.682;2023-11-19T07:47:54;17.20;93.90
41116;DHT22;26861;51.824;4.682;2023-11-19T07:50:20;17.20;94.00
41116;DHT22;26861;51.824;4.682;2023-11-19T07:52:45;17.20;94.00
41116;DHT22;26861;51.824;4.682;2023-11-19T07:55:11;17.30;94.00
41116;DHT22;26861;51.824;4.682;2023-11-19T07:57:37;17.20;93.90
41116;DHT22;26861;51.824;4.682;2023-11-19T08:00:03;17.20;93.80
41116;DHT22;26861;51.824;4.682;2023-11-19T08:02:29;17.20;93.70
41116;DHT22;26861;51.824;4.682;2023-11-19T08:04:54;17.20;93.80
41116;DHT22;26861;51.824;4.682;2023-11-19T08:07:20;17.30;93.90
41116;DHT22;26861;51.824;4.682;2023-11-19T08:09:46;17.20;93.80
41116;DHT22;26861;51.824;4.682;2023-11-19T08:12:11;17.30;93.90
41116;DHT22;26861;51.824;4.682;2023-11-19T08:14:39;17.20;93.70
41116;DHT22;26861;51.824;4.682;2023-11-19T08:17:04;17.20;93.80
41116;DHT22;26861;51.824;4.682;2023-11-19T08:19:30;17.30;93.80
41116;DHT22;26861;51.824;4.682;2023-11-19T08:21:56;17.20;93.80
41116;DHT22;26861;51.824;4.682;2023-11-19T08:24:21;17.30;93.80
41116;DHT22;26861;51.824;4.682;2023-11-19T08:26:47;17.30;93.90
41116;DHT22;26861;51.824;4.682;2023-11-19T08:29:12;17.50;93.80
41116;DHT22;26861;51.824;4.682;2023-11-19T08:31:38;17.30;93.70
41116;DHT22;26861;51.824;4.682;2023-11-19T08:34:04;17.30;93.60
41116;DHT22;26861;51.824;4.682;2023-11-19T08:36:34;17.30;93.70
41116;DHT22;26861;51.824;4.682;2023-11-19T08:38:59;17.20;93.80
41116;DHT22;26861;51.824;4.682;2023-11-19T08:41:25;17.30;93.80
41116;DHT22;26861;51.824;4.682;2023-11-19T08:43:50;17.30;93.80
41116;DHT22;26861;51.824;4.682;2023-11-19T08:46:16;17.30;93.70
41116;DHT22;26861;51.824;4.682;2023-11-19T08:48:42;17.20;93.70
41116;DHT22;26861;51.824;4.682;2023-11-19T08:51:08;17.20;93.90
41116;DHT22;26861;51.824;4.682;2023-11-19T08:53:34;17.30;93.80
41116;DHT22;26861;51.824;4.682;2023-11-19T08:56:01;17.20;93.90
41116;DHT22;26861;51.824;4.682;2023-11-19T08:58:28;17.20;93.90
41116;DHT22;26861;51.824;4.682;2023-11-19T09:00:54;17.30;94.00
41116;DHT22;26861;51.824;4.682;2023-11-19T09:03:20;17.20;93.90
41116;DHT22;26861;51.824;4.682;2023-11-19T09:05:46;17.30;94.00
41116;DHT22;26861;51.824;4.682;2023-11-19T09:08:12;17.30;94.00
41116;DHT22;26861;51.824;4.682;2023-11-19T09:10:38;17.40;94.00
41116;DHT22;26861;51.824;4.682;2023-11-19T09:13:04;17.30;94.00
41116;DHT22;26861;51.824;4.682;2023-11-19T09:15:30;17.40;94.00
41116;DHT22;26861;51.824;4.682;2023-11-19T09:17:56;17.40;93.90
41116;DHT22;26861;51.824;4.682;2023-11-19T09:20:22;17.40;94.00
41116;DHT22;26861;51.824;4.682;2023-11-19T09:22:48;17.30;93.90
41116;DHT22;26861;51.824;4.682;2023-11-19T09:25:14;17.40;94.00
41116;DHT22;26861;51.824;4.682;2023-11-19T09:27:43;17.40;92.10
41116;DHT22;26861;51.824;4.682;2023-11-19T09:30:09;17.30;94.40
41116;DHT22;26861;51.824;4.682;2023-11-19T09:32:35;17.40;93.40
41116;DHT22;26861;51.824;4.682;2023-11-19T09:35:03;17.40;94.10
41116;DHT22;26861;51.824;4.682;2023-11-19T09:37:29;17.40;93.40
41116;DHT22;26861;51.824;4.682;2023-11-19T09:39:55;17.40;94.10
41116;DHT22;26861;51.824;4.682;2023-11-19T09:42:21;17.40;93.80
41116;DHT22;26861;51.824;4.682;2023-11-19T09:44:49;17.50;94.10
41116;DHT22;26861;51.824;4.682;2023-11-19T09:47:14;17.50;93.90
41116;DHT22;26861;51.824;4.682;2023-11-19T09:49:41;17.60;94.10
41116;DHT22;26861;51.824;4.682;2023-11-19T09:52:07;17.50;94.10
41116;DHT22;26861;51.824;4.682;2023-11-19T09:54:32;17.50;93.90
41116;DHT22;26861;51.824;4.682;2023-11-19T09:56:58;17.60;94.00
41116;DHT22;26861;51.824;4.682;2023-11-19T09:59:28;17.50;93.70
41116;DHT22;26861;51.824;4.682;2023-11-19T10:01:54;17.60;93.90
41116;DHT22;26861;51.824;4.682;2023-11-19T10:04:22;17.60;94.00
41116;DHT22;26861;51.824;4.682;2023-11-19T10:06:48;17.70;94.10
41116;DHT22;26861;51.824;4.682;2023-11-19T10:09:15;17.70;94.00
41116;DHT22;26861;51.824;4.682;2023-11-19T10:11:40;17.80;93.80
41116;DHT22;26861;51.824;4.682;2023-11-19T10:14:06;17.80;93.80
41116;DHT22;26861;51.824;4.682;2023-11-19T10:16:31;17.60;93.70
41116;DHT22;26861;51.824;4.682;2023-11-19T10:18:59;18.00;93.30
41116;DHT22;26861;51.824;4.682;2023-11-19T10:21:25;17.90;93.30
41116;DHT22;26861;51.824;4.682;2023-11-19T10:23:55;18.00;93.50
41116;DHT22;26861;51.824;4.682;2023-11-19T10:26:22;18.00;91.30
41116;DHT22;26861;51.824;4.682;2023-11-19T10:28:48;18.00;93.60
41116;DHT22;26861;51.824;4.682;2023-11-19T10:31:14;18.40;93.70
41116;DHT22;26861;51.824;4.682;2023-11-19T10:33:40;18.20;93.70
41116;DHT22;26861;51.824;4.682;2023-11-19T10:36:06;18.20;93.40
41116;DHT22;26861;51.824;4.682;2023-11-19T10:38:32;18.30;93.00
41116;DHT22;26861;51.824;4.682;2023-11-19T10:40:59;18.20;93.30
41116;DHT22;26861;51.824;4.682;2023-11-19T10:43:24;18.40;93.40
41116;DHT22;26861;51.824;4.682;2023-11-19T10:45:51;18.30;93.50
41116;DHT22;26861;51.824;4.682;2023-11-19T10:48:16;18.40;93.60
41116;DHT22;26861;51.824;4.682;2023-11-19T10:50:43;18.30;93.50
41116;DHT22;26861;51.824;4.682;2023-11-19T10:53:10;18.30;93.60
41116;DHT22;26861;51.824;4.682;2023-11-19T10:55:38;18.30;93.60
41116;DHT22;26861;51.824;4.682;2023-11-19T10:58:05;18.40;93.50
41116;DHT22;26861;51.824;4.682;2023-11-19T11:01:06;18.30;93.60
41116;DHT22;26861;51.824;4.682;2023-11-19T11:03:26;18.30;93.50
41116;DHT22;26861;51.824;4.682;2023-11-19T11:05:55;18.30;91.30
41116;DHT22;26861;51.824;4.682;2023-11-19T11:08:21;18.20;93.80
41116;DHT22;26861;51.824;4.682;2023-11-19T11:10:56;18.20;93.70
41116;DHT22;26861;51.824;4.682;2023-11-19T11:13:23;18.30;91.50
41116;DHT22;26861;51.824;4.682;2023-11-19T11:15:53;18.30;93.90
41116;DHT22;26861;51.824;4.682;2023-11-19T11:18:20;18.30;93.60
41116;DHT22;26861;51.824;4.682;2023-11-19T11:20:45;18.40;93.70
41116;DHT22;26861;51.824;4.682;2023-11-19T11:23:19;18.40;93.50
41116;DHT22;26861;51.824;4.682;2023-11-19T11:38:38;18.90;92.90
41116;DHT22;26861;51.824;4.682;2023-11-19T11:43:48;18.90;90.50
41116;DHT22;26861;51.824;4.682;2023-11-19T11:49:03;19.00;90.30
41116;DHT22;26861;51.824;4.682;2023-11-19T11:54:11;19.10;90.30
41116;DHT22;26861;51.824;4.682;2023-11-19T11:56:37;19.20;92.80
41116;DHT22;26861;51.824;4.682;2023-11-19T11:59:19;19.20;92.40
41116;DHT22;26861;51.824;4.682;2023-11-19T12:01:57;19.20;92.30
41116;DHT22;26861;51.824;4.682;2023-11-19T12:04:25;19.30;90.20
41116;DHT22;26861;51.824;4.682;2023-11-19T12:07:14;19.20;92.50
41116;DHT22;26861;51.824;4.682;2023-11-19T12:09:41;19.40;92.60
41116;DHT22;26861;51.824;4.682;2023-11-19T12:15:21;19.40;89.90
41116;DHT22;26861;51.824;4.682;2023-11-19T12:19:59;19.50;89.90
41116;DHT22;26861;51.824;4.682;2023-11-19T12:22:25;19.60;92.30
41116;DHT22;26861;51.824;4.682;2023-11-19T12:27:17;19.60;89.10
41116;DHT22;26861;51.824;4.682;2023-11-19T12:29:43;19.40;92.20
41116;DHT22;26861;51.824;4.682;2023-11-19T12:32:09;19.40;92.20
41116;DHT22;26861;51.824;4.682;2023-11-19T12:34:35;19.40;92.40
41116;DHT22;26861;51.824;4.682;2023-11-19T12:37:03;19.30;92.50
41116;DHT22;26861;51.824;4.682;2023-11-19T12:39:29;19.30;92.60
41116;DHT22;26861;51.824;4.682;2023-11-19T12:41:55;19.30;92.80
41116;DHT22;26861;51.824;4.682;2023-11-19T12:44:21;19.10;92.80
41116;DHT22;26861;51.824;4.682;2023-11-19T12:46:58;19.10;93.00
41116;DHT22;26861;51.824;4.682;2023-11-19T12:49:24;19.00;92.70
41116;DHT22;26861;51.824;4.682;2023-11-19T12:51:50;19.20;92.80
41116;DHT22;26861;51.824;4.682;2023-11-19T12:54:16;19.10;92.90
41116;DHT22;26861;51.824;4.682;2023-11-19T12:56:51;19.10;92.90
41116;DHT22;26861;51.824;4.682;2023-11-19T12:59:17;19.10;93.00
41116;DHT22;26861;51.824;4.682;2023-11-19T13:01:53;19.00;92.70
41116;DHT22;26861;51.824;4.682;2023-11-19T13:04:19;19.10;93.10
41116;DHT22;26861;51.824;4.682;2023-11-19T13:06:47;19.00;92.90
41116;DHT22;26861;51.824;4.682;2023-11-19T13:09:25;19.10;90.70
41116;DHT22;26861;51.824;4.682;2023-11-19T13:11:51;19.10;90.70
41116;DHT22;26861;51.824;4.682;2023-11-19T13:14:17;19.00;93.10
41116;DHT22;26861;51.824;4.682;2023-11-19T13:16:44;19.00;93.00
41116;DHT22;26861;51.824;4.682;2023-11-19T13:19:10;19.00;93.00
41116;DHT22;26861;51.824;4.682;2023-11-19T13:21:36;19.10;93.00
41116;DHT22;26861;51.824;4.682;2023-11-19T13:24:03;19.20;92.90
41116;DHT22;26861;51.824;4.682;2023-11-19T13:26:28;19.10;92.70
41116;DHT22;26861;51.824;4.682;2023-11-19T13:28:54;19.10;92.90
41116;DHT22;26861;51.824;4.682;2023-11-19T13:31:20;19.00;93.10
41116;DHT22;26861;51.824;4.682;2023-11-19T13:33:45;19.10;92.90
41116;DHT22;26861;51.824;4.682;2023-11-19T13:36:11;19.10;92.90
41116;DHT22;26861;51.824;4.682;2023-11-19T13:38:36;19.20;92.80
41116;DHT22;26861;51.824;4.682;2023-11-19T13:41:05;19.10;92.80
41116;DHT22;26861;51.824;4.682;2023-11-19T13:43:31;19.00;90.60
41116;DHT22;26861;51.824;4.682;2023-11-19T13:45:56;19.00;93.00
41116;DHT22;26861;51.824;4.682;2023-11-19T13:48:23;19.00;92.80
41116;DHT22;26861;51.824;4.682;2023-11-19T13:50:49;19.00;93.10
41116;DHT22;26861;51.824;4.682;2023-11-19T13:53:15;19.00;93.00
41116;DHT22;26861;51.824;4.682;2023-11-19T13:55:41;18.90;92.70
41116;DHT22;26861;51.824;4.682;2023-11-19T13:58:07;19.00;93.10
41116;DHT22;26861;51.824;4.682;2023-11-19T14:00:33;18.90;92.80
41116;DHT22;26861;51.824;4.682;2023-11-19T14:02:59;18.90;92.60
41116;DHT22;26861;51.824;4.682;2023-11-19T14:05:25;18.90;92.90
41116;DHT22;26861;51.824;4.682;2023-11-19T14:07:50;19.00;93.00
41116;DHT22;26861;51.824;4.682;2023-11-19T14:10:17;18.90;92.80
41116;DHT22;26861;51.824;4.682;2023-11-19T14:12:43;18.80;92.90
41116;DHT22;26861;51.824;4.682;2023-11-19T14:15:09;18.90;92.70
41116;DHT22;26861;51.824;4.682;2023-11-19T14:17:35;18.80;92.70
41116;DHT22;26861;51.824;4.682;2023-11-19T14:20:01;18.80;93.00
41116;DHT22;26861;51.824;4.682;2023-11-19T14:22:26;18.80;92.60
41116;DHT22;26861;51.824;4.682;2023-11-19T14:24:52;18.80;92.90
41116;DHT22;26861;51.824;4.682;2023-11-19T14:27:17;18.60;92.80
41116;DHT22;26861;51.824;4.682;2023-11-19T14:29:43;18.60;92.80
41116;DHT22;26861;51.824;4.682;2023-11-19T14:32:10;18.80;92.20
41116;DHT22;26861;51.824;4.682;2023-11-19T14:34:35;18.80;92.70
41116;DHT22;26861;51.824;4.682;2023-11-19T14:37:01;18.80;92.70
41116;DHT22;26861;51.824;4.682;2023-11-19T14:39:26;18.80;92.70
41116;DHT22;26861;51.824;4.682;2023-11-19T14:41:52;18.80;92.70
41116;DHT22;26861;51.824;4.682;2023-11-19T14:44:19;18.70;92.60
41116;DHT22;26861;51.824;4.682;2023-11-19T14:46:46;18.80;92.60
41116;DHT22;26861;51.824;4.682;2023-11-19T14:49:11;18.70;92.70
41116;DHT22;26861;51.824;4.682;2023-11-19T14:51:37;18.80;92.60
41116;DHT22;26861;51.824;4.682;2023-11-19T14:54:06;18.80;92.70
41116;DHT22;26861;51.824;4.682;2023-11-19T14:56:31;18.70;90.40
41116;DHT22;26861;51.824;4.682;2023-11-19T14:58:57;18.90;92.70
41116;DHT22;26861;51.824;4.682;2023-11-19T15:01:24;18.60;92.20
41116;DHT22;26861;51.824;4.682;2023-11-19T15:03:49;18.70;92.60
41116;DHT22;26861;51.824;4.682;2023-11-19T15:06:15;18.70;92.50
41116;DHT22;26861;51.824;4.682;2023-11-19T15:08:41;18.70;92.50
41116;DHT22;26861;51.824;4.682;2023-11-19T15:11:07;18.70;92.30
41116;DHT22;26861;51.824;4.682;2023-11-19T15:13:34;18.70;92.30
41116;DHT22;26861;51.824;4.682;2023-11-19T15:16:01;18.30;92.40
41116;DHT22;26861;51.824;4.682;2023-11-19T15:18:27;18.60;92.40
41116;DHT22;26861;51.824;4.682;2023-11-19T15:20:53;18.30;92.30
41116;DHT22;26861;51.824;4.682;2023-11-19T15:23:18;18.60;92.30
41116;DHT22;26861;51.824;4.682;2023-11-19T15:25:44;18.60;92.30
41116;DHT22;26861;51.824;4.682;2023-11-19T15:28:10;18.60;92.40
41116;DHT22;26861;51.824;4.682;2023-11-19T15:30:36;18.70;92.40
41116;DHT22;26861;51.824;4.682;2023-11-19T15:33:01;18.60;92.40
41116;DHT22;26861;51.824;4.682;2023-11-19T15:35:27;18.60;92.40
41116;DHT22;26861;51.824;4.682;2023-11-19T15:37:52;18.60;92.30
41116;DHT22;26861;51.824;4.682;2023-11-19T15:40:18;18.50;92.40
41116;DHT22;26861;51.824;4.682;2023-11-19T15:42:45;18.60;92.30
41116;DHT22;26861;51.824;4.682;2023-11-19T15:45:15;18.60;90.80
41116;DHT22;26861;51.824;4.682;2023-11-19T15:47:41;18.50;92.40
41116;DHT22;26861;51.824;4.682;2023-11-19T15:50:07;18.60;92.30
41116;DHT22;26861;51.824;4.682;2023-11-19T15:52:35;18.60;92.20
41116;DHT22;26861;51.824;4.682;2023-11-19T15:55:01;18.50;92.40
41116;DHT22;26861;51.824;4.682;2023-11-19T15:57:27;18.60;92.30
41116;DHT22;26861;51.824;4.682;2023-11-19T15:59:53;18.50;92.40